Aranda — OIRY — position and weather

sailwx.info

Track history (hours):
 
Tides and Currents Weather Stations Pressure Air Temp Water Temp Dewpoint Dewpoint Depression Visibility Wind Speed Wind Dir Waves Ship Positions

Oceanographic research ship Aranda (Finland)

Detailed information on ship capabilities available from University of Delaware's Ocean Information Center and ARCUS's ALIAS (Arctic Logistics Information and Support) project.

Last reported at 2017-Mar-16 03:10 UTC. Time now 2017-Mar-25 09:46 UTC.
Position N 59°57' E 021°40'.
Warning: this ship's position is 9 days out of date.

Length 60 m; draft 4.6 m.

Type: Other ship. MMSI: 230145000.

Date/timePositionNaut miles runAvg speedWind from/ knotsBaromVisibWave heightAir tempDewpointWater temp
2017-Mar-16 03:10N 59°57' E 021°40'6 8.5
2017-Mar-16 02:27N 59°53' E 021°31'8 9.4
2017-Mar-16 01:33N 59°46' E 021°21'1110.7
2017-Mar-16 00:30N 59°35' E 021°17'270 7.6
2017-Mar-14 13:06N 55°37' E 017°17'611.0
2017-Mar-14 12:34N 55°34' E 017°08'1111.0
2017-Mar-14 11:33N 55°30' E 016°51'33 7.4
2017-Mar-14 07:08N 55°15' E 015°59'5 9.6
2017-Mar-14 06:34N 55°17' E 015°50'1111.1
2017-Mar-14 05:32N 55°21' E 015°31'7 6.8
2017-Mar-14 04:32N 55°23' E 015°20'5 5.6
2017-Mar-14 03:33N 55°23' E 015°10'1110.8
2017-Mar-14 02:33N 55°23' E 014°51'1010.2
2017-Mar-14 01:33N 55°19' E 014°35'1111.1
2017-Mar-14 00:33N 55°10' E 014°22'1313.3
2017-Mar-13 23:33N 54°60' E 014°08'2 1.8
2017-Mar-13 22:33N 54°58' E 014°06'4 3.6
2017-Mar-13 21:31N 54°59' E 013°60'1111.6
2017-Mar-13 20:33N 55°01' E 013°40'28 9.4
2017-Mar-13 17:33N 55°13' E 012°55'1211.6
2017-Mar-13 16:33N 55°19' E 012°39'1212.3
2017-Mar-13 15:33N 55°32' E 012°42'8 8.4
2017-Mar-13 14:33N 55°40' E 012°41'8 7.7
2017-Mar-13 13:33N 55°48' E 012°42'1111.2
2017-Mar-13 12:33N 55°59' E 012°38'8 7.7
2017-Mar-13 11:33N 56°06' E 012°33'66 7.3
2017-Mar-13 02:30N 57°09' E 011°58'1112.1
2017-Mar-13 01:34N 57°18' E 011°46'1211.9
2017-Mar-13 00:33N 57°28' E 011°33'1212.0
2017-Mar-12 23:33N 57°38' E 011°23'1212.2
2017-Mar-12 22:33N 57°50' E 011°18'2 2.0
2017-Mar-12 21:31N 57°52' E 011°18'1211.5
2017-Mar-12 20:30N 58°04' E 011°17'12 3.1
2017-Mar-12 16:32N 58°16' E 011°26'1111.0
2017-Mar-12 15:33N 58°19' E 011°07'3 3.0
2017-Mar-12 14:33N 58°20' E 011°02'3 2.9
2017-Mar-12 13:31N 58°19' E 010°57'3 3.5
2017-Mar-12 12:33N 58°18' E 010°51'3 3.3
2017-Mar-12 11:33N 58°16' E 010°45'6 4.4
2017-Mar-12 10:14N 58°17' E 010°34'2 2.9
2017-Mar-12 09:33N 58°17' E 010°30'0 0.0
2017-Mar-12 08:27N 58°17' E 010°30'2412.0
2017-Mar-12 06:26N 57°56' E 010°55'1213.1
2017-Mar-12 05:31N 57°46' E 011°06'1313.0
2017-Mar-12 04:33N 57°36' E 011°19'1313.1
2017-Mar-12 03:33N 57°24' E 011°30'1313.4
2017-Mar-12 02:33N 57°12' E 011°39'0 0.0
2017-Mar-12 01:33N 57°12' E 011°39'7 7.4
2017-Mar-12 00:34N 57°05' E 011°44'6210.2
2017-Mar-11 18:29N 56°08' E 012°32'1313.8
2017-Mar-11 17:33N 55°57' E 012°43'5 5.2
2017-Mar-11 16:33N 55°52' E 012°45'1110.7
2017-Mar-11 15:33N 55°42' E 012°41'1111.1
2017-Mar-11 14:33N 55°30' E 012°43'1212.0
2017-Mar-11 13:33N 55°18' E 012°42'1111.3
2017-Mar-11 12:33N 55°15' E 013°01'1312.0
2017-Mar-11 11:30N 55°15' E 013°23'1313.3
2017-Mar-11 10:32N 55°14' E 013°46'1413.2
2017-Mar-11 09:29N 55°14' E 014°10'1112.2
2017-Mar-11 08:33N 55°20' E 014°26'1313.0
2017-Mar-11 07:33N 55°30' E 014°41'9 9.2
2017-Mar-11 06:33N 55°37' E 014°52'4 3.6
2017-Mar-11 05:33N 55°39' E 014°58'1312.9
2017-Mar-11 04:33N 55°45' E 015°17'1312.7
2017-Mar-11 03:33N 55°52' E 015°37'1312.8
2017-Mar-11 02:33N 56°00' E 015°54'1312.6
2017-Mar-11 01:33N 56°11' E 016°06'1211.8
2017-Mar-11 00:33N 56°22' E 016°12'0 0.0
2017-Mar-10 23:33N 56°22' E 016°12'1211.6
2017-Mar-10 22:33N 56°11' E 016°18'9 8.9
2017-Mar-10 21:34N 56°07' E 016°32'3 3.1
2017-Mar-10 20:33N 56°09' E 016°36'258 9.9
2017-Mar-09 18:24N 59°40' E 021°16'1011.4
2017-Mar-09 17:33N 59°49' E 021°22'  
Track history (hours):
 
Tides and Currents Weather Stations Pressure Air Temp Water Temp Dewpoint Dewpoint Depression Visibility Wind Speed Wind Dir Waves Ship Positions

Oceanographic research ship Aranda (Finland)

Detailed information on ship capabilities available from University of Delaware's Ocean Information Center and ARCUS's ALIAS (Arctic Logistics Information and Support) project.

Last reported at 2017-Mar-16 03:10 UTC. Time now 2017-Mar-25 09:46 UTC.
Position N 59°57' E 021°40'.
Warning: this ship's position is 9 days out of date.

Length 60 m; draft 4.6 m.

Type: Other ship. MMSI: 230145000.

Date/timePositionNaut miles runAvg speedWind from/ knotsBaromVisibWave heightAir tempDewpointWater temp
2017-Mar-16 03:10N 59°57' E 021°40'6 8.5
2017-Mar-16 02:27N 59°53' E 021°31'8 9.4
2017-Mar-16 01:33N 59°46' E 021°21'1110.7
2017-Mar-16 00:30N 59°35' E 021°17'270 7.6
2017-Mar-14 13:06N 55°37' E 017°17'611.0
2017-Mar-14 12:34N 55°34' E 017°08'1111.0
2017-Mar-14 11:33N 55°30' E 016°51'33 7.4
2017-Mar-14 07:08N 55°15' E 015°59'5 9.6
2017-Mar-14 06:34N 55°17' E 015°50'1111.1
2017-Mar-14 05:32N 55°21' E 015°31'7 6.8
2017-Mar-14 04:32N 55°23' E 015°20'5 5.6
2017-Mar-14 03:33N 55°23' E 015°10'1110.8
2017-Mar-14 02:33N 55°23' E 014°51'1010.2
2017-Mar-14 01:33N 55°19' E 014°35'1111.1
2017-Mar-14 00:33N 55°10' E 014°22'1313.3
2017-Mar-13 23:33N 54°60' E 014°08'2 1.8
2017-Mar-13 22:33N 54°58' E 014°06'4 3.6
2017-Mar-13 21:31N 54°59' E 013°60'1111.6
2017-Mar-13 20:33N 55°01' E 013°40'28 9.4
2017-Mar-13 17:33N 55°13' E 012°55'1211.6
2017-Mar-13 16:33N 55°19' E 012°39'1212.3
2017-Mar-13 15:33N 55°32' E 012°42'8 8.4
2017-Mar-13 14:33N 55°40' E 012°41'8 7.7
2017-Mar-13 13:33N 55°48' E 012°42'1111.2
2017-Mar-13 12:33N 55°59' E 012°38'8 7.7
2017-Mar-13 11:33N 56°06' E 012°33'66 7.3
2017-Mar-13 02:30N 57°09' E 011°58'1112.1
2017-Mar-13 01:34N 57°18' E 011°46'1211.9
2017-Mar-13 00:33N 57°28' E 011°33'1212.0
2017-Mar-12 23:33N 57°38' E 011°23'1212.2
2017-Mar-12 22:33N 57°50' E 011°18'2 2.0
2017-Mar-12 21:31N 57°52' E 011°18'1211.5
2017-Mar-12 20:30N 58°04' E 011°17'12 3.1
2017-Mar-12 16:32N 58°16' E 011°26'1111.0
2017-Mar-12 15:33N 58°19' E 011°07'3 3.0
2017-Mar-12 14:33N 58°20' E 011°02'3 2.9
2017-Mar-12 13:31N 58°19' E 010°57'3 3.5
2017-Mar-12 12:33N 58°18' E 010°51'3 3.3
2017-Mar-12 11:33N 58°16' E 010°45'6 4.4
2017-Mar-12 10:14N 58°17' E 010°34'2 2.9
2017-Mar-12 09:33N 58°17' E 010°30'0 0.0
2017-Mar-12 08:27N 58°17' E 010°30'2412.0
2017-Mar-12 06:26N 57°56' E 010°55'1213.1
2017-Mar-12 05:31N 57°46' E 011°06'1313.0
2017-Mar-12 04:33N 57°36' E 011°19'1313.1
2017-Mar-12 03:33N 57°24' E 011°30'1313.4
2017-Mar-12 02:33N 57°12' E 011°39'0 0.0
2017-Mar-12 01:33N 57°12' E 011°39'7 7.4
2017-Mar-12 00:34N 57°05' E 011°44'6210.2
2017-Mar-11 18:29N 56°08' E 012°32'1313.8
2017-Mar-11 17:33N 55°57' E 012°43'5 5.2
2017-Mar-11 16:33N 55°52' E 012°45'1110.7
2017-Mar-11 15:33N 55°42' E 012°41'1111.1
2017-Mar-11 14:33N 55°30' E 012°43'1212.0
2017-Mar-11 13:33N 55°18' E 012°42'1111.3
2017-Mar-11 12:33N 55°15' E 013°01'1312.0
2017-Mar-11 11:30N 55°15' E 013°23'1313.3
2017-Mar-11 10:32N 55°14' E 013°46'1413.2
2017-Mar-11 09:29N 55°14' E 014°10'1112.2
2017-Mar-11 08:33N 55°20' E 014°26'1313.0
2017-Mar-11 07:33N 55°30' E 014°41'9 9.2
2017-Mar-11 06:33N 55°37' E 014°52'4 3.6
2017-Mar-11 05:33N 55°39' E 014°58'1312.9
2017-Mar-11 04:33N 55°45' E 015°17'1312.7
2017-Mar-11 03:33N 55°52' E 015°37'1312.8
2017-Mar-11 02:33N 56°00' E 015°54'1312.6
2017-Mar-11 01:33N 56°11' E 016°06'1211.8
2017-Mar-11 00:33N 56°22' E 016°12'0 0.0
2017-Mar-10 23:33N 56°22' E 016°12'1211.6
2017-Mar-10 22:33N 56°11' E 016°18'9 8.9
2017-Mar-10 21:34N 56°07' E 016°32'3 3.1
2017-Mar-10 20:33N 56°09' E 016°36'258 9.9
2017-Mar-09 18:24N 59°40' E 021°16'1011.4
2017-Mar-09 17:33N 59°49' E 021°22'  

Dump ship's entire track history